sensor_id;sensor_type;location;lat;lon;timestamp;P1;durP1;ratioP1;P2;durP2;ratioP2
45848;SDS011;31567;54.600;9.842;2023-05-13T00:02:50;6.47;;;5.82;;
45848;SDS011;31567;54.600;9.842;2023-05-13T00:06:30;8.65;;;5.40;;
45848;SDS011;31567;54.600;9.842;2023-05-13T00:10:10;9.52;;;6.45;;
45848;SDS011;31567;54.600;9.842;2023-05-13T00:13:49;7.22;;;6.45;;
45848;SDS011;31567;54.600;9.842;2023-05-13T00:17:29;6.53;;;5.80;;
45848;SDS011;31567;54.600;9.842;2023-05-13T00:21:09;6.82;;;6.15;;
45848;SDS011;31567;54.600;9.842;2023-05-13T00:24:48;7.32;;;5.80;;
45848;SDS011;31567;54.600;9.842;2023-05-13T00:28:28;8.48;;;5.88;;
45848;SDS011;31567;54.600;9.842;2023-05-13T00:32:07;6.75;;;5.90;;
45848;SDS011;31567;54.600;9.842;2023-05-13T00:35:47;6.10;;;5.57;;
45848;SDS011;31567;54.600;9.842;2023-05-13T00:39:26;7.28;;;5.97;;
45848;SDS011;31567;54.600;9.842;2023-05-13T00:43:06;7.30;;;6.50;;
45848;SDS011;31567;54.600;9.842;2023-05-13T00:46:46;8.00;;;7.20;;
45848;SDS011;31567;54.600;9.842;2023-05-13T00:50:27;8.30;;;6.30;;
45848;SDS011;31567;54.600;9.842;2023-05-13T00:54:06;10.82;;;6.70;;
45848;SDS011;31567;54.600;9.842;2023-05-13T00:57:46;7.75;;;6.95;;
45848;SDS011;31567;54.600;9.842;2023-05-13T01:01:47;7.20;;;6.60;;
45848;SDS011;31567;54.600;9.842;2023-05-13T01:05:49;10.48;;;6.95;;
45848;SDS011;31567;54.600;9.842;2023-05-13T01:13:27;8.98;;;6.88;;
45848;SDS011;31567;54.600;9.842;2023-05-13T01:17:14;8.65;;;7.82;;
45848;SDS011;31567;54.600;9.842;2023-05-13T01:20:56;8.15;;;6.32;;
45848;SDS011;31567;54.600;9.842;2023-05-13T01:24:39;9.07;;;7.72;;
45848;SDS011;31567;54.600;9.842;2023-05-13T01:28:18;9.82;;;7.85;;
45848;SDS011;31567;54.600;9.842;2023-05-13T01:31:58;7.68;;;7.07;;
45848;SDS011;31567;54.600;9.842;2023-05-13T01:35:39;10.35;;;8.30;;
45848;SDS011;31567;54.600;9.842;2023-05-13T01:39:19;8.85;;;8.00;;
45848;SDS011;31567;54.600;9.842;2023-05-13T01:43:00;10.35;;;8.85;;
45848;SDS011;31567;54.600;9.842;2023-05-13T01:46:41;8.70;;;7.70;;
45848;SDS011;31567;54.600;9.842;2023-05-13T01:50:21;9.13;;;8.00;;
45848;SDS011;31567;54.600;9.842;2023-05-13T01:54:01;8.30;;;7.47;;
45848;SDS011;31567;54.600;9.842;2023-05-13T01:57:40;8.57;;;7.60;;
45848;SDS011;31567;54.600;9.842;2023-05-13T02:01:20;8.18;;;7.38;;
45848;SDS011;31567;54.600;9.842;2023-05-13T02:04:59;12.15;;;8.45;;
45848;SDS011;31567;54.600;9.842;2023-05-13T02:08:39;9.82;;;7.57;;
45848;SDS011;31567;54.600;9.842;2023-05-13T02:12:19;10.73;;;7.63;;
45848;SDS011;31567;54.600;9.842;2023-05-13T02:15:58;9.73;;;8.15;;
45848;SDS011;31567;54.600;9.842;2023-05-13T02:19:38;9.18;;;8.32;;
45848;SDS011;31567;54.600;9.842;2023-05-13T02:23:18;12.70;;;8.45;;
45848;SDS011;31567;54.600;9.842;2023-05-13T02:26:57;11.45;;;8.82;;
45848;SDS011;31567;54.600;9.842;2023-05-13T02:30:37;10.50;;;8.65;;
45848;SDS011;31567;54.600;9.842;2023-05-13T02:34:17;9.68;;;8.10;;
45848;SDS011;31567;54.600;9.842;2023-05-13T02:37:57;8.98;;;8.13;;
45848;SDS011;31567;54.600;9.842;2023-05-13T02:41:36;8.60;;;7.78;;
45848;SDS011;31567;54.600;9.842;2023-05-13T02:45:16;10.25;;;8.55;;
45848;SDS011;31567;54.600;9.842;2023-05-13T02:48:56;8.60;;;7.90;;
45848;SDS011;31567;54.600;9.842;2023-05-13T02:52:37;10.38;;;8.20;;
45848;SDS011;31567;54.600;9.842;2023-05-13T02:56:18;8.70;;;7.90;;
45848;SDS011;31567;54.600;9.842;2023-05-13T02:59:57;10.35;;;7.78;;
45848;SDS011;31567;54.600;9.842;2023-05-13T03:03:37;8.35;;;7.75;;
45848;SDS011;31567;54.600;9.842;2023-05-13T03:07:16;8.73;;;7.57;;
45848;SDS011;31567;54.600;9.842;2023-05-13T03:10:56;8.60;;;7.63;;
45848;SDS011;31567;54.600;9.842;2023-05-13T03:14:36;11.05;;;8.35;;
45848;SDS011;31567;54.600;9.842;2023-05-13T03:18:16;8.90;;;7.93;;
45848;SDS011;31567;54.600;9.842;2023-05-13T03:21:56;9.13;;;8.38;;
45848;SDS011;31567;54.600;9.842;2023-05-13T03:25:35;9.02;;;8.13;;
45848;SDS011;31567;54.600;9.842;2023-05-13T03:29:15;9.10;;;7.95;;
45848;SDS011;31567;54.600;9.842;2023-05-13T03:32:54;9.02;;;8.13;;
45848;SDS011;31567;54.600;9.842;2023-05-13T03:36:34;8.27;;;7.57;;
45848;SDS011;31567;54.600;9.842;2023-05-13T03:40:13;8.50;;;7.57;;
45848;SDS011;31567;54.600;9.842;2023-05-13T03:43:53;10.40;;;9.27;;
45848;SDS011;31567;54.600;9.842;2023-05-13T03:47:33;10.00;;;9.00;;
45848;SDS011;31567;54.600;9.842;2023-05-13T03:51:13;9.98;;;8.25;;
45848;SDS011;31567;54.600;9.842;2023-05-13T03:54:52;9.55;;;7.95;;
45848;SDS011;31567;54.600;9.842;2023-05-13T03:58:32;10.27;;;7.95;;
45848;SDS011;31567;54.600;9.842;2023-05-13T04:02:11;8.50;;;7.72;;
45848;SDS011;31567;54.600;9.842;2023-05-13T04:05:51;11.25;;;7.60;;
45848;SDS011;31567;54.600;9.842;2023-05-13T04:09:30;8.60;;;7.70;;
45848;SDS011;31567;54.600;9.842;2023-05-13T04:13:10;8.32;;;7.47;;
45848;SDS011;31567;54.600;9.842;2023-05-13T04:16:49;7.97;;;7.35;;
45848;SDS011;31567;54.600;9.842;2023-05-13T04:20:29;8.27;;;7.15;;
45848;SDS011;31567;54.600;9.842;2023-05-13T04:24:09;8.63;;;7.72;;
45848;SDS011;31567;54.600;9.842;2023-05-13T04:27:48;8.55;;;7.63;;
45848;SDS011;31567;54.600;9.842;2023-05-13T04:31:28;7.65;;;7.00;;
45848;SDS011;31567;54.600;9.842;2023-05-13T04:35:08;8.60;;;6.90;;
45848;SDS011;31567;54.600;9.842;2023-05-13T04:38:47;7.55;;;6.95;;
45848;SDS011;31567;54.600;9.842;2023-05-13T04:42:27;6.88;;;6.18;;
45848;SDS011;31567;54.600;9.842;2023-05-13T04:46:06;7.65;;;6.82;;
45848;SDS011;31567;54.600;9.842;2023-05-13T04:49:46;9.07;;;6.55;;
45848;SDS011;31567;54.600;9.842;2023-05-13T04:53:26;7.40;;;6.32;;
45848;SDS011;31567;54.600;9.842;2023-05-13T04:57:05;8.00;;;6.50;;
45848;SDS011;31567;54.600;9.842;2023-05-13T05:00:45;6.95;;;6.00;;
45848;SDS011;31567;54.600;9.842;2023-05-13T05:04:24;7.47;;;6.55;;
45848;SDS011;31567;54.600;9.842;2023-05-13T05:08:05;7.15;;;6.30;;
45848;SDS011;31567;54.600;9.842;2023-05-13T05:11:44;7.30;;;6.60;;
45848;SDS011;31567;54.600;9.842;2023-05-13T05:15:24;7.82;;;5.80;;
45848;SDS011;31567;54.600;9.842;2023-05-13T05:19:03;10.75;;;7.95;;
45848;SDS011;31567;54.600;9.842;2023-05-13T05:22:43;6.55;;;5.88;;
45848;SDS011;31567;54.600;9.842;2023-05-13T05:26:22;8.40;;;6.22;;
45848;SDS011;31567;54.600;9.842;2023-05-13T05:30:02;6.90;;;6.03;;
45848;SDS011;31567;54.600;9.842;2023-05-13T05:33:43;6.13;;;5.57;;
45848;SDS011;31567;54.600;9.842;2023-05-13T05:37:22;6.90;;;5.93;;
45848;SDS011;31567;54.600;9.842;2023-05-13T05:41:02;6.47;;;5.88;;
45848;SDS011;31567;54.600;9.842;2023-05-13T05:44:41;7.15;;;5.90;;
45848;SDS011;31567;54.600;9.842;2023-05-13T05:48:21;7.35;;;5.90;;
45848;SDS011;31567;54.600;9.842;2023-05-13T05:52:00;9.05;;;5.82;;
45848;SDS011;31567;54.600;9.842;2023-05-13T05:55:40;8.27;;;5.97;;
45848;SDS011;31567;54.600;9.842;2023-05-13T05:59:20;7.45;;;5.70;;
45848;SDS011;31567;54.600;9.842;2023-05-13T06:02:59;6.25;;;5.65;;
45848;SDS011;31567;54.600;9.842;2023-05-13T06:06:39;6.60;;;6.03;;
45848;SDS011;31567;54.600;9.842;2023-05-13T06:10:18;7.43;;;5.80;;
45848;SDS011;31567;54.600;9.842;2023-05-13T06:13:58;7.00;;;5.95;;
45848;SDS011;31567;54.600;9.842;2023-05-13T06:17:38;6.30;;;5.65;;
45848;SDS011;31567;54.600;9.842;2023-05-13T06:21:17;8.98;;;6.03;;
45848;SDS011;31567;54.600;9.842;2023-05-13T06:24:57;6.28;;;5.68;;
45848;SDS011;31567;54.600;9.842;2023-05-13T06:28:36;6.68;;;5.85;;
45848;SDS011;31567;54.600;9.842;2023-05-13T06:32:16;6.57;;;5.80;;
45848;SDS011;31567;54.600;9.842;2023-05-13T06:35:56;6.25;;;5.65;;
45848;SDS011;31567;54.600;9.842;2023-05-13T06:39:36;7.30;;;5.60;;
45848;SDS011;31567;54.600;9.842;2023-05-13T06:43:16;6.10;;;5.53;;
45848;SDS011;31567;54.600;9.842;2023-05-13T06:46:56;6.40;;;5.78;;
45848;SDS011;31567;54.600;9.842;2023-05-13T06:50:35;6.88;;;5.53;;
45848;SDS011;31567;54.600;9.842;2023-05-13T06:54:15;5.93;;;5.30;;
45848;SDS011;31567;54.600;9.842;2023-05-13T06:57:54;7.28;;;5.55;;
45848;SDS011;31567;54.600;9.842;2023-05-13T07:01:34;6.70;;;6.10;;
45848;SDS011;31567;54.600;9.842;2023-05-13T07:05:13;6.10;;;5.25;;
45848;SDS011;31567;54.600;9.842;2023-05-13T07:08:53;9.15;;;5.43;;
45848;SDS011;31567;54.600;9.842;2023-05-13T07:12:33;10.82;;;5.95;;
45848;SDS011;31567;54.600;9.842;2023-05-13T07:16:12;8.27;;;5.80;;
45848;SDS011;31567;54.600;9.842;2023-05-13T07:19:52;13.13;;;5.57;;
45848;SDS011;31567;54.600;9.842;2023-05-13T07:23:32;9.90;;;5.93;;
45848;SDS011;31567;54.600;9.842;2023-05-13T07:27:11;9.25;;;4.20;;
45848;SDS011;31567;54.600;9.842;2023-05-13T07:30:51;7.63;;;4.60;;
45848;SDS011;31567;54.600;9.842;2023-05-13T07:34:31;13.48;;;3.70;;
45848;SDS011;31567;54.600;9.842;2023-05-13T07:38:10;4.93;;;4.20;;
45848;SDS011;31567;54.600;9.842;2023-05-13T07:41:51;8.02;;;3.70;;
45848;SDS011;31567;54.600;9.842;2023-05-13T07:45:30;4.70;;;4.25;;
45848;SDS011;31567;54.600;9.842;2023-05-13T07:49:10;5.47;;;4.20;;
45848;SDS011;31567;54.600;9.842;2023-05-13T07:52:50;7.45;;;4.72;;
45848;SDS011;31567;54.600;9.842;2023-05-13T07:56:29;6.97;;;4.07;;
45848;SDS011;31567;54.600;9.842;2023-05-13T08:00:09;6.70;;;5.25;;
45848;SDS011;31567;54.600;9.842;2023-05-13T08:03:49;6.70;;;4.13;;
45848;SDS011;31567;54.600;9.842;2023-05-13T08:07:29;5.82;;;3.85;;
45848;SDS011;31567;54.600;9.842;2023-05-13T08:11:08;5.75;;;4.63;;
45848;SDS011;31567;54.600;9.842;2023-05-13T08:14:48;7.68;;;4.07;;
45848;SDS011;31567;54.600;9.842;2023-05-13T08:18:28;7.45;;;4.93;;
45848;SDS011;31567;54.600;9.842;2023-05-13T08:22:07;6.10;;;4.50;;
45848;SDS011;31567;54.600;9.842;2023-05-13T08:25:47;5.05;;;4.55;;
45848;SDS011;31567;54.600;9.842;2023-05-13T08:29:26;4.70;;;4.18;;
45848;SDS011;31567;54.600;9.842;2023-05-13T08:33:06;5.20;;;3.85;;
45848;SDS011;31567;54.600;9.842;2023-05-13T08:36:46;4.70;;;3.50;;
45848;SDS011;31567;54.600;9.842;2023-05-13T08:40:25;5.32;;;4.60;;
45848;SDS011;31567;54.600;9.842;2023-05-13T08:44:05;8.27;;;5.65;;
45848;SDS011;31567;54.600;9.842;2023-05-13T08:47:49;9.50;;;5.40;;
45848;SDS011;31567;54.600;9.842;2023-05-13T08:51:30;7.22;;;5.57;;
45848;SDS011;31567;54.600;9.842;2023-05-13T08:55:10;7.10;;;5.82;;
45848;SDS011;31567;54.600;9.842;2023-05-13T08:58:51;8.48;;;5.38;;
45848;SDS011;31567;54.600;9.842;2023-05-13T09:02:30;7.28;;;5.90;;
45848;SDS011;31567;54.600;9.842;2023-05-13T09:06:10;11.20;;;5.93;;
45848;SDS011;31567;54.600;9.842;2023-05-13T09:09:50;8.98;;;5.70;;
45848;SDS011;31567;54.600;9.842;2023-05-13T09:13:29;10.40;;;5.93;;
45848;SDS011;31567;54.600;9.842;2023-05-13T09:17:09;8.07;;;5.90;;
45848;SDS011;31567;54.600;9.842;2023-05-13T09:20:49;9.07;;;5.00;;
45848;SDS011;31567;54.600;9.842;2023-05-13T09:24:29;5.93;;;5.00;;
45848;SDS011;31567;54.600;9.842;2023-05-13T09:28:08;6.97;;;5.10;;
45848;SDS011;31567;54.600;9.842;2023-05-13T09:31:53;8.75;;;5.57;;
45848;SDS011;31567;54.600;9.842;2023-05-13T09:35:40;9.25;;;6.22;;
45848;SDS011;31567;54.600;9.842;2023-05-13T09:39:21;6.65;;;5.07;;
45848;SDS011;31567;54.600;9.842;2023-05-13T09:43:01;9.05;;;5.60;;
45848;SDS011;31567;54.600;9.842;2023-05-13T09:46:43;7.95;;;4.57;;
45848;SDS011;31567;54.600;9.842;2023-05-13T09:50:23;7.25;;;5.07;;
45848;SDS011;31567;54.600;9.842;2023-05-13T09:54:04;7.35;;;5.70;;
45848;SDS011;31567;54.600;9.842;2023-05-13T09:57:44;6.55;;;5.18;;
45848;SDS011;31567;54.600;9.842;2023-05-13T10:01:25;5.90;;;5.07;;
45848;SDS011;31567;54.600;9.842;2023-05-13T10:05:06;7.47;;;5.57;;
45848;SDS011;31567;54.600;9.842;2023-05-13T10:08:47;10.45;;;5.38;;
45848;SDS011;31567;54.600;9.842;2023-05-13T10:12:31;6.18;;;5.63;;
45848;SDS011;31567;54.600;9.842;2023-05-13T10:16:14;7.93;;;5.93;;
45848;SDS011;31567;54.600;9.842;2023-05-13T10:19:56;8.18;;;5.82;;
45848;SDS011;31567;54.600;9.842;2023-05-13T10:23:36;8.73;;;5.75;;
45848;SDS011;31567;54.600;9.842;2023-05-13T10:27:16;7.25;;;5.13;;
45848;SDS011;31567;54.600;9.842;2023-05-13T10:30:57;6.90;;;5.40;;
45848;SDS011;31567;54.600;9.842;2023-05-13T10:34:36;6.57;;;5.00;;
45848;SDS011;31567;54.600;9.842;2023-05-13T10:42:41;12.60;;;5.95;;
45848;SDS011;31567;54.600;9.842;2023-05-13T10:46:22;6.72;;;5.13;;
45848;SDS011;31567;54.600;9.842;2023-05-13T10:50:06;8.25;;;5.20;;
45848;SDS011;31567;54.600;9.842;2023-05-13T10:54:01;6.10;;;4.50;;
45848;SDS011;31567;54.600;9.842;2023-05-13T10:58:08;5.18;;;4.70;;
45848;SDS011;31567;54.600;9.842;2023-05-13T11:01:52;6.80;;;4.38;;
45848;SDS011;31567;54.600;9.842;2023-05-13T11:05:31;9.25;;;3.92;;
45848;SDS011;31567;54.600;9.842;2023-05-13T11:20:38;5.05;;;3.72;;
45848;SDS011;31567;54.600;9.842;2023-05-13T11:24:18;7.22;;;3.75;;
45848;SDS011;31567;54.600;9.842;2023-05-13T11:27:59;3.97;;;3.40;;
45848;SDS011;31567;54.600;9.842;2023-05-13T11:31:49;7.03;;;3.80;;
45848;SDS011;31567;54.600;9.842;2023-05-13T11:35:31;6.22;;;4.13;;
45848;SDS011;31567;54.600;9.842;2023-05-13T11:39:12;6.70;;;3.97;;
45848;SDS011;31567;54.600;9.842;2023-05-13T11:42:53;6.53;;;4.30;;
45848;SDS011;31567;54.600;9.842;2023-05-13T11:46:33;5.32;;;4.07;;
45848;SDS011;31567;54.600;9.842;2023-05-13T11:50:17;6.90;;;3.70;;
45848;SDS011;31567;54.600;9.842;2023-05-13T11:54:10;5.38;;;3.72;;
45848;SDS011;31567;54.600;9.842;2023-05-13T11:57:50;8.82;;;3.83;;
45848;SDS011;31567;54.600;9.842;2023-05-13T12:01:30;7.72;;;3.50;;
45848;SDS011;31567;54.600;9.842;2023-05-13T12:05:10;7.45;;;3.72;;
45848;SDS011;31567;54.600;9.842;2023-05-13T12:08:49;4.00;;;3.60;;
45848;SDS011;31567;54.600;9.842;2023-05-13T12:12:29;5.97;;;4.00;;
45848;SDS011;31567;54.600;9.842;2023-05-13T12:16:12;5.10;;;4.53;;
45848;SDS011;31567;54.600;9.842;2023-05-13T12:20:05;5.47;;;4.70;;
45848;SDS011;31567;54.600;9.842;2023-05-13T12:23:49;8.60;;;5.55;;
45848;SDS011;31567;54.600;9.842;2023-05-13T12:27:28;9.32;;;5.70;;
45848;SDS011;31567;54.600;9.842;2023-05-13T12:31:14;5.40;;;4.70;;
45848;SDS011;31567;54.600;9.842;2023-05-13T12:34:55;9.48;;;6.05;;
45848;SDS011;31567;54.600;9.842;2023-05-13T12:38:35;6.22;;;5.10;;
45848;SDS011;31567;54.600;9.842;2023-05-13T12:42:15;9.45;;;5.28;;
45848;SDS011;31567;54.600;9.842;2023-05-13T12:45:55;6.85;;;5.55;;
45848;SDS011;31567;54.600;9.842;2023-05-13T12:49:49;6.05;;;5.07;;
45848;SDS011;31567;54.600;9.842;2023-05-13T12:53:30;9.20;;;4.75;;
45848;SDS011;31567;54.600;9.842;2023-05-13T12:57:09;8.57;;;5.43;;
45848;SDS011;31567;54.600;9.842;2023-05-13T13:00:49;5.35;;;4.63;;
45848;SDS011;31567;54.600;9.842;2023-05-13T13:04:28;5.80;;;5.28;;
45848;SDS011;31567;54.600;9.842;2023-05-13T13:08:08;5.13;;;4.60;;
45848;SDS011;31567;54.600;9.842;2023-05-13T13:11:48;5.85;;;4.43;;
45848;SDS011;31567;54.600;9.842;2023-05-13T13:15:27;6.95;;;3.80;;
45848;SDS011;31567;54.600;9.842;2023-05-13T13:19:07;4.88;;;4.22;;
45848;SDS011;31567;54.600;9.842;2023-05-13T13:22:47;6.00;;;3.47;;
45848;SDS011;31567;54.600;9.842;2023-05-13T13:26:26;4.80;;;3.85;;
45848;SDS011;31567;54.600;9.842;2023-05-13T13:30:06;6.75;;;3.60;;
45848;SDS011;31567;54.600;9.842;2023-05-13T13:33:46;4.88;;;3.63;;
45848;SDS011;31567;54.600;9.842;2023-05-13T13:37:26;4.80;;;3.92;;
45848;SDS011;31567;54.600;9.842;2023-05-13T13:41:05;5.10;;;3.63;;
45848;SDS011;31567;54.600;9.842;2023-05-13T13:44:45;9.48;;;4.35;;
45848;SDS011;31567;54.600;9.842;2023-05-13T13:48:25;7.35;;;3.75;;
45848;SDS011;31567;54.600;9.842;2023-05-13T13:52:04;8.75;;;4.18;;
45848;SDS011;31567;54.600;9.842;2023-05-13T13:55:44;6.65;;;4.68;;
45848;SDS011;31567;54.600;9.842;2023-05-13T13:59:24;7.80;;;4.97;;
45848;SDS011;31567;54.600;9.842;2023-05-13T14:03:03;7.85;;;4.72;;
45848;SDS011;31567;54.600;9.842;2023-05-13T14:06:43;8.80;;;4.68;;
45848;SDS011;31567;54.600;9.842;2023-05-13T14:10:23;5.18;;;4.78;;
45848;SDS011;31567;54.600;9.842;2023-05-13T14:14:02;7.25;;;4.40;;
45848;SDS011;31567;54.600;9.842;2023-05-13T14:17:42;5.03;;;4.47;;
45848;SDS011;31567;54.600;9.842;2023-05-13T14:21:22;5.72;;;4.40;;
45848;SDS011;31567;54.600;9.842;2023-05-13T14:25:01;6.13;;;4.78;;
45848;SDS011;31567;54.600;9.842;2023-05-13T14:28:41;4.57;;;4.13;;
45848;SDS011;31567;54.600;9.842;2023-05-13T14:32:21;5.20;;;3.85;;
45848;SDS011;31567;54.600;9.842;2023-05-13T14:36:01;7.30;;;4.30;;
45848;SDS011;31567;54.600;9.842;2023-05-13T14:39:40;5.53;;;4.95;;
45848;SDS011;31567;54.600;9.842;2023-05-13T14:43:20;5.25;;;4.65;;
45848;SDS011;31567;54.600;9.842;2023-05-13T14:47:01;9.10;;;4.63;;
45848;SDS011;31567;54.600;9.842;2023-05-13T14:50:44;5.65;;;4.30;;
45848;SDS011;31567;54.600;9.842;2023-05-13T14:54:24;6.55;;;4.90;;
45848;SDS011;31567;54.600;9.842;2023-05-13T14:58:04;7.35;;;4.68;;
45848;SDS011;31567;54.600;9.842;2023-05-13T15:01:46;5.13;;;4.10;;
45848;SDS011;31567;54.600;9.842;2023-05-13T15:05:25;6.07;;;4.60;;
45848;SDS011;31567;54.600;9.842;2023-05-13T15:09:05;6.97;;;3.53;;
45848;SDS011;31567;54.600;9.842;2023-05-13T15:12:44;4.95;;;4.10;;
45848;SDS011;31567;54.600;9.842;2023-05-13T15:16:24;9.27;;;4.07;;
45848;SDS011;31567;54.600;9.842;2023-05-13T15:20:04;4.15;;;3.25;;
45848;SDS011;31567;54.600;9.842;2023-05-13T15:23:44;4.22;;;3.45;;
45848;SDS011;31567;54.600;9.842;2023-05-13T15:27:25;4.30;;;3.90;;
45848;SDS011;31567;54.600;9.842;2023-05-13T15:31:05;3.97;;;3.67;;
45848;SDS011;31567;54.600;9.842;2023-05-13T15:34:45;3.90;;;3.42;;
45848;SDS011;31567;54.600;9.842;2023-05-13T15:38:25;3.22;;;2.90;;
45848;SDS011;31567;54.600;9.842;2023-05-13T15:42:04;7.65;;;3.28;;
45848;SDS011;31567;54.600;9.842;2023-05-13T15:45:44;6.57;;;3.17;;
45848;SDS011;31567;54.600;9.842;2023-05-13T15:49:24;4.05;;;3.45;;
45848;SDS011;31567;54.600;9.842;2023-05-13T15:53:04;5.47;;;3.15;;
45848;SDS011;31567;54.600;9.842;2023-05-13T15:56:44;4.88;;;2.50;;
45848;SDS011;31567;54.600;9.842;2023-05-13T16:00:24;5.05;;;2.35;;
45848;SDS011;31567;54.600;9.842;2023-05-13T16:04:03;4.97;;;2.40;;
45848;SDS011;31567;54.600;9.842;2023-05-13T16:07:43;5.32;;;2.85;;
45848;SDS011;31567;54.600;9.842;2023-05-13T16:11:23;3.28;;;2.70;;
45848;SDS011;31567;54.600;9.842;2023-05-13T16:15:02;4.30;;;2.70;;
45848;SDS011;31567;54.600;9.842;2023-05-13T16:18:42;3.10;;;2.22;;
45848;SDS011;31567;54.600;9.842;2023-05-13T16:22:26;6.47;;;2.85;;
45848;SDS011;31567;54.600;9.842;2023-05-13T16:26:10;3.40;;;2.13;;
45848;SDS011;31567;54.600;9.842;2023-05-13T16:29:50;3.30;;;2.60;;
45848;SDS011;31567;54.600;9.842;2023-05-13T16:33:30;3.13;;;2.33;;
45848;SDS011;31567;54.600;9.842;2023-05-13T16:37:10;3.83;;;2.20;;
45848;SDS011;31567;54.600;9.842;2023-05-13T16:40:50;2.58;;;2.00;;
45848;SDS011;31567;54.600;9.842;2023-05-13T16:44:30;4.05;;;1.92;;
45848;SDS011;31567;54.600;9.842;2023-05-13T16:48:09;3.10;;;2.20;;
45848;SDS011;31567;54.600;9.842;2023-05-13T16:51:49;5.15;;;2.05;;
45848;SDS011;31567;54.600;9.842;2023-05-13T16:55:28;2.30;;;1.77;;
45848;SDS011;31567;54.600;9.842;2023-05-13T16:59:10;3.25;;;2.00;;
45848;SDS011;31567;54.600;9.842;2023-05-13T17:03:06;2.67;;;1.90;;
45848;SDS011;31567;54.600;9.842;2023-05-13T17:06:45;3.85;;;2.13;;
45848;SDS011;31567;54.600;9.842;2023-05-13T17:10:25;2.10;;;1.70;;
45848;SDS011;31567;54.600;9.842;2023-05-13T17:14:05;2.65;;;1.83;;
45848;SDS011;31567;54.600;9.842;2023-05-13T17:17:44;5.47;;;2.25;;
45848;SDS011;31567;54.600;9.842;2023-05-13T17:21:24;4.00;;;1.90;;
45848;SDS011;31567;54.600;9.842;2023-05-13T17:25:03;2.08;;;1.98;;
45848;SDS011;31567;54.600;9.842;2023-05-13T17:28:43;2.67;;;1.90;;
45848;SDS011;31567;54.600;9.842;2023-05-13T17:32:23;4.50;;;2.08;;
45848;SDS011;31567;54.600;9.842;2023-05-13T17:36:03;2.90;;;1.60;;
45848;SDS011;31567;54.600;9.842;2023-05-13T17:39:42;1.95;;;1.60;;
45848;SDS011;31567;54.600;9.842;2023-05-13T17:43:22;2.38;;;1.88;;
45848;SDS011;31567;54.600;9.842;2023-05-13T17:47:02;2.72;;;1.77;;
45848;SDS011;31567;54.600;9.842;2023-05-13T17:50:41;6.90;;;1.80;;
45848;SDS011;31567;54.600;9.842;2023-05-13T17:54:21;3.25;;;1.92;;
45848;SDS011;31567;54.600;9.842;2023-05-13T17:58:00;1.80;;;1.60;;
45848;SDS011;31567;54.600;9.842;2023-05-13T18:01:40;3.85;;;1.80;;
45848;SDS011;31567;54.600;9.842;2023-05-13T18:05:19;4.57;;;1.80;;
45848;SDS011;31567;54.600;9.842;2023-05-13T18:08:59;3.83;;;1.83;;
45848;SDS011;31567;54.600;9.842;2023-05-13T18:12:40;4.82;;;1.70;;
45848;SDS011;31567;54.600;9.842;2023-05-13T18:16:19;3.38;;;2.00;;
45848;SDS011;31567;54.600;9.842;2023-05-13T18:19:59;4.97;;;2.45;;
45848;SDS011;31567;54.600;9.842;2023-05-13T18:23:39;1.90;;;1.80;;
45848;SDS011;31567;54.600;9.842;2023-05-13T18:27:18;2.92;;;2.17;;
45848;SDS011;31567;54.600;9.842;2023-05-13T18:30:59;5.80;;;1.92;;
45848;SDS011;31567;54.600;9.842;2023-05-13T18:34:38;3.40;;;2.10;;
45848;SDS011;31567;54.600;9.842;2023-05-13T18:38:18;3.75;;;2.28;;
45848;SDS011;31567;54.600;9.842;2023-05-13T18:41:58;3.60;;;2.20;;
45848;SDS011;31567;54.600;9.842;2023-05-13T18:45:37;3.45;;;2.65;;
45848;SDS011;31567;54.600;9.842;2023-05-13T18:49:17;6.78;;;2.58;;
45848;SDS011;31567;54.600;9.842;2023-05-13T18:52:57;4.57;;;2.38;;
45848;SDS011;31567;54.600;9.842;2023-05-13T18:56:36;3.10;;;2.65;;
45848;SDS011;31567;54.600;9.842;2023-05-13T19:00:16;3.35;;;2.60;;
45848;SDS011;31567;54.600;9.842;2023-05-13T19:03:56;2.53;;;2.10;;
45848;SDS011;31567;54.600;9.842;2023-05-13T19:07:35;3.92;;;2.70;;
45848;SDS011;31567;54.600;9.842;2023-05-13T19:11:15;5.10;;;2.65;;
45848;SDS011;31567;54.600;9.842;2023-05-13T19:14:55;3.50;;;2.70;;
45848;SDS011;31567;54.600;9.842;2023-05-13T19:18:34;4.63;;;2.42;;
45848;SDS011;31567;54.600;9.842;2023-05-13T19:22:14;6.38;;;2.78;;
45848;SDS011;31567;54.600;9.842;2023-05-13T19:25:53;2.67;;;2.30;;
45848;SDS011;31567;54.600;9.842;2023-05-13T19:29:33;2.85;;;2.05;;
45848;SDS011;31567;54.600;9.842;2023-05-13T19:33:13;4.28;;;2.30;;
45848;SDS011;31567;54.600;9.842;2023-05-13T19:36:52;3.15;;;2.33;;
45848;SDS011;31567;54.600;9.842;2023-05-13T19:40:32;5.78;;;2.55;;
45848;SDS011;31567;54.600;9.842;2023-05-13T19:44:12;2.55;;;2.33;;
45848;SDS011;31567;54.600;9.842;2023-05-13T19:47:51;5.05;;;3.10;;
45848;SDS011;31567;54.600;9.842;2023-05-13T19:51:31;3.13;;;2.38;;
45848;SDS011;31567;54.600;9.842;2023-05-13T19:55:10;4.72;;;2.40;;
45848;SDS011;31567;54.600;9.842;2023-05-13T19:58:50;5.50;;;2.60;;
45848;SDS011;31567;54.600;9.842;2023-05-13T20:02:30;3.63;;;2.30;;
45848;SDS011;31567;54.600;9.842;2023-05-13T20:06:10;2.88;;;2.28;;
45848;SDS011;31567;54.600;9.842;2023-05-13T20:09:49;5.32;;;2.60;;
45848;SDS011;31567;54.600;9.842;2023-05-13T20:13:29;3.38;;;2.30;;
45848;SDS011;31567;54.600;9.842;2023-05-13T20:17:09;3.40;;;2.33;;
45848;SDS011;31567;54.600;9.842;2023-05-13T20:20:49;3.15;;;2.33;;
45848;SDS011;31567;54.600;9.842;2023-05-13T20:24:29;3.25;;;2.55;;
45848;SDS011;31567;54.600;9.842;2023-05-13T20:28:09;5.47;;;2.97;;
45848;SDS011;31567;54.600;9.842;2023-05-13T20:31:48;3.30;;;2.50;;
45848;SDS011;31567;54.600;9.842;2023-05-13T20:35:28;2.83;;;2.55;;
45848;SDS011;31567;54.600;9.842;2023-05-13T20:39:07;3.50;;;2.53;;
45848;SDS011;31567;54.600;9.842;2023-05-13T20:42:47;4.90;;;2.88;;
45848;SDS011;31567;54.600;9.842;2023-05-13T20:46:26;4.53;;;2.80;;
45848;SDS011;31567;54.600;9.842;2023-05-13T20:50:06;3.97;;;2.88;;
45848;SDS011;31567;54.600;9.842;2023-05-13T20:53:46;4.13;;;2.90;;
45848;SDS011;31567;54.600;9.842;2023-05-13T20:57:26;4.85;;;3.47;;
45848;SDS011;31567;54.600;9.842;2023-05-13T21:01:05;3.88;;;3.58;;
45848;SDS011;31567;54.600;9.842;2023-05-13T21:04:45;6.43;;;3.28;;
45848;SDS011;31567;54.600;9.842;2023-05-13T21:08:24;3.95;;;3.65;;
45848;SDS011;31567;54.600;9.842;2023-05-13T21:12:04;4.30;;;3.85;;
45848;SDS011;31567;54.600;9.842;2023-05-13T21:15:44;4.20;;;3.80;;
45848;SDS011;31567;54.600;9.842;2023-05-13T21:19:23;3.95;;;3.58;;
45848;SDS011;31567;54.600;9.842;2023-05-13T21:23:03;3.63;;;3.33;;
45848;SDS011;31567;54.600;9.842;2023-05-13T21:26:43;4.07;;;3.70;;
45848;SDS011;31567;54.600;9.842;2023-05-13T21:30:23;4.13;;;3.83;;
45848;SDS011;31567;54.600;9.842;2023-05-13T21:34:02;4.30;;;3.90;;
45848;SDS011;31567;54.600;9.842;2023-05-13T21:37:42;4.13;;;3.60;;
45848;SDS011;31567;54.600;9.842;2023-05-13T21:41:21;4.82;;;3.90;;
45848;SDS011;31567;54.600;9.842;2023-05-13T21:45:01;4.10;;;3.75;;
45848;SDS011;31567;54.600;9.842;2023-05-13T21:48:41;4.72;;;3.88;;
45848;SDS011;31567;54.600;9.842;2023-05-13T21:52:20;4.68;;;4.00;;
45848;SDS011;31567;54.600;9.842;2023-05-13T21:56:00;7.47;;;4.35;;
45848;SDS011;31567;54.600;9.842;2023-05-13T21:59:40;3.90;;;3.60;;
45848;SDS011;31567;54.600;9.842;2023-05-13T22:03:20;5.18;;;4.10;;
45848;SDS011;31567;54.600;9.842;2023-05-13T22:07:00;4.25;;;3.95;;
45848;SDS011;31567;54.600;9.842;2023-05-13T22:10:40;3.75;;;3.45;;
45848;SDS011;31567;54.600;9.842;2023-05-13T22:14:19;8.15;;;4.10;;
45848;SDS011;31567;54.600;9.842;2023-05-13T22:17:59;5.45;;;4.55;;
45848;SDS011;31567;54.600;9.842;2023-05-13T22:21:38;8.40;;;4.50;;
45848;SDS011;31567;54.600;9.842;2023-05-13T22:25:18;4.40;;;3.97;;
45848;SDS011;31567;54.600;9.842;2023-05-13T22:28:57;4.95;;;4.03;;